BLUE21 LIBD-LBSF
Flight info
| Callsign | BLUE21 |
|---|---|
| Flight time | 1h 6m |
| Altitude | 37000 |
| Route | VURKE DCT PAPIZ DCT MAVAR DCT BUREK DCT SKJ DCT SIN/N0369F190 T215 VELBA T343 MOREK |
| Aircraft | B38M/M-SDE1FGHILORVWXY/HB1 |
Departure
| Time | 2026-04-27 19:39 |
|---|---|
| Airport | Bari Karol Wojtyła International Airport (LIBD) |
Arrival
| Time | 2026-04-27 20:46 |
|---|---|
| Airport | Sofia Airport (LBSF) |
| Time | Latitude | Longitude | Altitude | Speed | Heading |
|---|---|---|---|---|---|
| 2026-04-27 19:08 | 41.13551 | 16.76396 | 144 ft | 0 kts | 160° |
| 2026-04-27 19:27 | 41.13565 | 16.76389 | 143 ft | 4 kts | 161° |
| 2026-04-27 19:28 | 41.13589 | 16.76382 | 142 ft | 4 kts | 181° |
| 2026-04-27 19:28 | 41.13613 | 16.76391 | 140 ft | 4 kts | 222° |
| 2026-04-27 19:28 | 41.13621 | 16.76405 | 139 ft | 1 kts | 249° |
| 2026-04-27 19:30 | 41.13612 | 16.76372 | 141 ft | 6 kts | 249° |
| 2026-04-27 19:30 | 41.13611 | 16.76371 | 141 ft | 0 kts | 249° |
| 2026-04-27 19:31 | 41.13604 | 16.76346 | 142 ft | 0 kts | 249° |
| 2026-04-27 19:32 | 41.13598 | 16.76326 | 143 ft | 13 kts | 249° |
| 2026-04-27 19:32 | 41.13557 | 16.76178 | 147 ft | 13 kts | 249° |
| 2026-04-27 19:32 | 41.13555 | 16.76173 | 147 ft | 0 kts | 249° |
| 2026-04-27 19:34 | 41.13555 | 16.76172 | 147 ft | 2 kts | 249° |
| 2026-04-27 19:35 | 41.13582 | 16.76076 | 148 ft | 16 kts | 328° |
| 2026-04-27 19:35 | 41.13683 | 16.76111 | 143 ft | 19 kts | 64° |
| 2026-04-27 19:35 | 41.13732 | 16.76276 | 137 ft | 16 kts | 72° |
| 2026-04-27 19:35 | 41.13780 | 16.76466 | 129 ft | 26 kts | 70° |
| 2026-04-27 19:36 | 41.13853 | 16.76712 | 121 ft | 31 kts | 68° |
| 2026-04-27 19:36 | 41.13914 | 16.76818 | 118 ft | 11 kts | 357° |
| 2026-04-27 19:36 | 41.13953 | 16.76768 | 119 ft | 7 kts | 302° |
| 2026-04-27 19:36 | 41.13974 | 16.76718 | 119 ft | 0 kts | 298° |
| 2026-04-27 19:37 | 41.14001 | 16.76646 | 123 ft | 14 kts | 287° |
| 2026-04-27 19:37 | 41.14002 | 16.76609 | 123 ft | 0 kts | 262° |
| 2026-04-27 19:38 | 41.14002 | 16.76607 | 123 ft | 3 kts | 259° |
| 2026-04-27 19:38 | 41.13895 | 16.76231 | 134 ft | 84 kts | 249° |
| 2026-04-27 19:38 | 41.13611 | 16.75195 | 162 ft | 153 kts | 250° |
| 2026-04-27 19:39 | 41.13174 | 16.73698 | 479 ft | 188 kts | 246° |
| 2026-04-27 19:39 | 41.12622 | 16.72100 | 1388 ft | 188 kts | 249° |
| 2026-04-27 19:39 | 41.12139 | 16.70519 | 2438 ft | 185 kts | 251° |
| 2026-04-27 19:39 | 41.11664 | 16.68874 | 3127 ft | 197 kts | 251° |
| 2026-04-27 19:40 | 41.11208 | 16.67140 | 3937 ft | 197 kts | 253° |
| 2026-04-27 19:40 | 41.10789 | 16.65418 | 4764 ft | 198 kts | 253° |
| 2026-04-27 19:40 | 41.10340 | 16.63542 | 4976 ft | 236 kts | 253° |
| 2026-04-27 19:40 | 41.09796 | 16.61267 | 5014 ft | 277 kts | 252° |
| 2026-04-27 19:41 | 41.09181 | 16.58816 | 5953 ft | 275 kts | 254° |
| 2026-04-27 19:41 | 41.08960 | 16.56447 | 7468 ft | 251 kts | 278° |
| 2026-04-27 19:41 | 41.09645 | 16.54383 | 8543 ft | 243 kts | 315° |
| 2026-04-27 19:41 | 41.11068 | 16.53352 | 9630 ft | 235 kts | 350° |
| 2026-04-27 19:42 | 41.12667 | 16.53634 | 10259 ft | 243 kts | 27° |
| 2026-04-27 19:42 | 41.13905 | 16.55161 | 10848 ft | 250 kts | 60° |
| 2026-04-27 19:42 | 41.14376 | 16.57386 | 11455 ft | 256 kts | 91° |
| 2026-04-27 19:42 | 41.13957 | 16.59651 | 12143 ft | 256 kts | 121° |
| 2026-04-27 19:43 | 41.12782 | 16.61417 | 12785 ft | 258 kts | 143° |
| 2026-04-27 19:43 | 41.11172 | 16.62422 | 13456 ft | 257 kts | 175° |
| 2026-04-27 19:43 | 41.09438 | 16.62096 | 14085 ft | 255 kts | 210° |
| 2026-04-27 19:43 | 41.08173 | 16.60502 | 14574 ft | 255 kts | 246° |
| 2026-04-27 19:44 | 41.07868 | 16.58239 | 15113 ft | 253 kts | 282° |
| 2026-04-27 19:44 | 41.08631 | 16.56164 | 15598 ft | 256 kts | 317° |
| 2026-04-27 19:44 | 41.10173 | 16.55007 | 16150 ft | 258 kts | 342° |
| 2026-04-27 19:44 | 41.11953 | 16.54572 | 16727 ft | 263 kts | 357° |
| 2026-04-27 19:45 | 41.13750 | 16.55014 | 17304 ft | 267 kts | 25° |
| 2026-04-27 19:45 | 41.15391 | 16.56215 | 17884 ft | 271 kts | 25° |
| 2026-04-27 19:45 | 41.17133 | 16.57220 | 18414 ft | 273 kts | 20° |
| 2026-04-27 19:45 | 41.18891 | 16.58206 | 18918 ft | 276 kts | 21° |
| 2026-04-27 19:46 | 41.20646 | 16.59215 | 19418 ft | 278 kts | 21° |
| 2026-04-27 19:46 | 41.22383 | 16.60441 | 19715 ft | 293 kts | 37° |
| 2026-04-27 19:46 | 41.23692 | 16.62609 | 19828 ft | 314 kts | 64° |
| 2026-04-27 19:46 | 41.24236 | 16.65486 | 19971 ft | 333 kts | 84° |
| 2026-04-27 19:47 | 41.24448 | 16.68632 | 20073 ft | 350 kts | 81° |
| 2026-04-27 19:47 | 41.24761 | 16.71937 | 20138 ft | 369 kts | 82° |
| 2026-04-27 19:47 | 41.25078 | 16.75403 | 20222 ft | 386 kts | 82° |
| 2026-04-27 19:47 | 41.25356 | 16.79014 | 20503 ft | 396 kts | 89° |
| 2026-04-27 19:48 | 41.24982 | 16.82635 | 21095 ft | 399 kts | 104° |
| 2026-04-27 19:48 | 41.24297 | 16.86234 | 21493 ft | 405 kts | 103° |
| 2026-04-27 19:48 | 41.23605 | 16.89874 | 22046 ft | 407 kts | 103° |
| 2026-04-27 19:48 | 41.22891 | 16.93538 | 22510 ft | 412 kts | 104° |
| 2026-04-27 19:49 | 41.22160 | 16.97231 | 22992 ft | 415 kts | 104° |
| 2026-04-27 19:49 | 41.21414 | 17.00956 | 23467 ft | 419 kts | 104° |
| 2026-04-27 19:49 | 41.20660 | 17.04713 | 23884 ft | 423 kts | 104° |
| 2026-04-27 19:49 | 41.19898 | 17.08490 | 24284 ft | 426 kts | 104° |
| 2026-04-27 19:50 | 41.19130 | 17.12296 | 24682 ft | 428 kts | 104° |
| 2026-04-27 19:50 | 41.18606 | 17.16188 | 25048 ft | 429 kts | 89° |
| 2026-04-27 19:50 | 41.18887 | 17.20107 | 25460 ft | 428 kts | 79° |
| 2026-04-27 19:50 | 41.19287 | 17.24060 | 25761 ft | 433 kts | 81° |
| 2026-04-27 19:51 | 41.19678 | 17.28041 | 26165 ft | 435 kts | 81° |
| 2026-04-27 19:51 | 41.20079 | 17.32037 | 26523 ft | 438 kts | 81° |
| 2026-04-27 19:51 | 41.20484 | 17.36055 | 26889 ft | 440 kts | 81° |
| 2026-04-27 19:51 | 41.20892 | 17.40098 | 27256 ft | 443 kts | 81° |
| 2026-04-27 19:52 | 41.21297 | 17.44112 | 27605 ft | 446 kts | 81° |
| 2026-04-27 19:52 | 41.21574 | 17.46875 | 27848 ft | 447 kts | 81° |
| 2026-04-27 19:52 | 41.22119 | 17.52321 | 28303 ft | 451 kts | 81° |
| 2026-04-27 19:52 | 41.22530 | 17.56455 | 28640 ft | 453 kts | 81° |
| 2026-04-27 19:53 | 41.23357 | 17.64801 | 29292 ft | 458 kts | 81° |
| 2026-04-27 19:53 | 41.23771 | 17.69008 | 29623 ft | 460 kts | 81° |
| 2026-04-27 19:53 | 41.24187 | 17.73243 | 29887 ft | 464 kts | 81° |
| 2026-04-27 19:54 | 41.24604 | 17.77512 | 30178 ft | 467 kts | 81° |
| 2026-04-27 19:54 | 41.25022 | 17.81804 | 30450 ft | 469 kts | 81° |
| 2026-04-27 19:54 | 41.25440 | 17.86113 | 30715 ft | 471 kts | 81° |
| 2026-04-27 19:54 | 41.25857 | 17.90433 | 30978 ft | 473 kts | 81° |
| 2026-04-27 19:55 | 41.26275 | 17.94777 | 31236 ft | 475 kts | 81° |
| 2026-04-27 19:55 | 41.26693 | 17.99132 | 31491 ft | 477 kts | 81° |
| 2026-04-27 19:55 | 41.27109 | 18.03520 | 31743 ft | 479 kts | 82° |
| 2026-04-27 19:55 | 41.27178 | 18.07958 | 31983 ft | 482 kts | 97° |
| 2026-04-27 19:56 | 41.26325 | 18.12254 | 32251 ft | 483 kts | 114° |
| 2026-04-27 19:56 | 41.24744 | 18.16124 | 32429 ft | 485 kts | 122° |
| 2026-04-27 19:56 | 41.23041 | 18.20017 | 32642 ft | 487 kts | 121° |
| 2026-04-27 19:56 | 41.21341 | 18.23908 | 32969 ft | 487 kts | 121° |
| 2026-04-27 19:57 | 41.19624 | 18.27781 | 33314 ft | 486 kts | 121° |
| 2026-04-27 19:57 | 41.17899 | 18.31644 | 33645 ft | 486 kts | 122° |
| 2026-04-27 19:57 | 41.16150 | 18.35494 | 33825 ft | 488 kts | 122° |
| 2026-04-27 19:57 | 41.14420 | 18.39356 | 33936 ft | 485 kts | 121° |
| 2026-04-27 19:58 | 41.12706 | 18.43212 | 34052 ft | 484 kts | 122° |
| 2026-04-27 19:58 | 41.10983 | 18.47056 | 34156 ft | 483 kts | 122° |
| 2026-04-27 19:58 | 41.07545 | 18.54692 | 34324 ft | 482 kts | 122° |
| 2026-04-27 19:59 | 41.04104 | 18.62309 | 34482 ft | 482 kts | 122° |
| 2026-04-27 19:59 | 41.00669 | 18.69897 | 34617 ft | 480 kts | 122° |
| 2026-04-27 20:00 | 40.97247 | 18.77436 | 34641 ft | 482 kts | 122° |
| 2026-04-27 20:00 | 40.95516 | 18.81242 | 34471 ft | 480 kts | 122° |
| 2026-04-27 20:00 | 40.93796 | 18.85029 | 34345 ft | 480 kts | 121° |
| 2026-04-27 20:01 | 40.92368 | 18.89002 | 34320 ft | 479 kts | 107° |
| 2026-04-27 20:01 | 40.91757 | 18.93315 | 34322 ft | 478 kts | 90° |
| 2026-04-27 20:01 | 40.91997 | 18.97685 | 34330 ft | 476 kts | 77° |
| 2026-04-27 20:01 | 40.93004 | 19.01827 | 34318 ft | 472 kts | 61° |
| 2026-04-27 20:02 | 40.95780 | 19.08010 | 34329 ft | 471 kts | 55° |
| 2026-04-27 20:02 | 40.99343 | 19.15295 | 34412 ft | 471 kts | 54° |
| 2026-04-27 20:03 | 41.03542 | 19.23704 | 34371 ft | 470 kts | 53° |
| 2026-04-27 20:03 | 41.06576 | 19.29761 | 34398 ft | 471 kts | 54° |
| 2026-04-27 20:04 | 41.10175 | 19.36964 | 34390 ft | 471 kts | 54° |
| 2026-04-27 20:04 | 41.13787 | 19.44210 | 34389 ft | 471 kts | 54° |
| 2026-04-27 20:05 | 41.17397 | 19.51468 | 34389 ft | 470 kts | 54° |
| 2026-04-27 20:05 | 41.20991 | 19.58712 | 34388 ft | 470 kts | 54° |
| 2026-04-27 20:06 | 41.24585 | 19.65973 | 34388 ft | 470 kts | 54° |
| 2026-04-27 20:06 | 41.28180 | 19.73252 | 34377 ft | 470 kts | 54° |
| 2026-04-27 20:07 | 41.31768 | 19.80535 | 34383 ft | 471 kts | 54° |
| 2026-04-27 20:07 | 41.35323 | 19.87769 | 34379 ft | 470 kts | 54° |
| 2026-04-27 20:08 | 41.38894 | 19.95051 | 34367 ft | 469 kts | 54° |
| 2026-04-27 20:08 | 41.42462 | 20.02344 | 34395 ft | 470 kts | 54° |
| 2026-04-27 20:09 | 41.46032 | 20.09662 | 34396 ft | 470 kts | 54° |
| 2026-04-27 20:09 | 41.49602 | 20.16996 | 34407 ft | 471 kts | 54° |
| 2026-04-27 20:10 | 41.53163 | 20.24328 | 34391 ft | 470 kts | 54° |
| 2026-04-27 20:10 | 41.56723 | 20.31676 | 34409 ft | 471 kts | 54° |
| 2026-04-27 20:11 | 41.60255 | 20.38984 | 34411 ft | 471 kts | 54° |
| 2026-04-27 20:11 | 41.63816 | 20.46364 | 34410 ft | 472 kts | 54° |
| 2026-04-27 20:12 | 41.67236 | 20.53863 | 34402 ft | 474 kts | 65° |
| 2026-04-27 20:12 | 41.69227 | 20.62295 | 34408 ft | 477 kts | 68° |
| 2026-04-27 20:13 | 41.71335 | 20.70647 | 34427 ft | 477 kts | 69° |
| 2026-04-27 20:13 | 41.73402 | 20.79082 | 34434 ft | 477 kts | 69° |
| 2026-04-27 20:14 | 41.75461 | 20.87539 | 34429 ft | 476 kts | 69° |
| 2026-04-27 20:14 | 41.77510 | 20.95982 | 34430 ft | 477 kts | 69° |
| 2026-04-27 20:15 | 41.79552 | 21.04430 | 34432 ft | 476 kts | 69° |
| 2026-04-27 20:15 | 41.81578 | 21.12841 | 34430 ft | 477 kts | 69° |
| 2026-04-27 20:16 | 41.83606 | 21.21296 | 34455 ft | 476 kts | 69° |
| 2026-04-27 20:16 | 41.85624 | 21.29753 | 34436 ft | 476 kts | 69° |
| 2026-04-27 20:17 | 41.87636 | 21.38216 | 34450 ft | 476 kts | 70° |
| 2026-04-27 20:17 | 41.89643 | 21.46691 | 34444 ft | 476 kts | 70° |
| 2026-04-27 20:18 | 41.91646 | 21.55177 | 34442 ft | 476 kts | 70° |
| 2026-04-27 20:18 | 41.93533 | 21.63660 | 34424 ft | 478 kts | 78° |
| 2026-04-27 20:19 | 41.94086 | 21.72598 | 34407 ft | 480 kts | 82° |
| 2026-04-27 20:19 | 41.94695 | 21.81530 | 34441 ft | 481 kts | 83° |
| 2026-04-27 20:20 | 41.95266 | 21.90481 | 34436 ft | 480 kts | 83° |
| 2026-04-27 20:20 | 41.95824 | 21.99376 | 34445 ft | 481 kts | 83° |
| 2026-04-27 20:21 | 41.96379 | 22.08325 | 34439 ft | 480 kts | 83° |
| 2026-04-27 20:21 | 41.96928 | 22.17288 | 34442 ft | 480 kts | 83° |
| 2026-04-27 20:22 | 41.97469 | 22.26232 | 34444 ft | 480 kts | 83° |
| 2026-04-27 20:22 | 41.98001 | 22.35184 | 34430 ft | 480 kts | 85° |
| 2026-04-27 20:23 | 41.97876 | 22.44177 | 34463 ft | 482 kts | 90° |
| 2026-04-27 20:23 | 41.97650 | 22.53186 | 34449 ft | 481 kts | 91° |
| 2026-04-27 20:24 | 41.97410 | 22.62107 | 34448 ft | 481 kts | 90° |
| 2026-04-27 20:24 | 41.97161 | 22.71101 | 34176 ft | 481 kts | 91° |
| 2026-04-27 20:25 | 41.97034 | 22.75581 | 33523 ft | 480 kts | 91° |
| 2026-04-27 20:25 | 41.96908 | 22.80107 | 32305 ft | 489 kts | 90° |
| 2026-04-27 20:25 | 41.97126 | 22.84699 | 31030 ft | 495 kts | 76° |
| 2026-04-27 20:25 | 41.98228 | 22.89035 | 29713 ft | 487 kts | 59° |
| 2026-04-27 20:26 | 42.00144 | 22.92725 | 28403 ft | 477 kts | 45° |
| 2026-04-27 20:26 | 42.02449 | 22.95892 | 27160 ft | 472 kts | 44° |
| 2026-04-27 20:26 | 42.04741 | 22.99026 | 25963 ft | 467 kts | 44° |
| 2026-04-27 20:26 | 42.07031 | 23.02124 | 24817 ft | 466 kts | 44° |
| 2026-04-27 20:27 | 42.09320 | 23.05198 | 23704 ft | 464 kts | 44° |
| 2026-04-27 20:27 | 42.11571 | 23.08214 | 22446 ft | 459 kts | 44° |
| 2026-04-27 20:27 | 42.13846 | 23.11262 | 21205 ft | 452 kts | 44° |
| 2026-04-27 20:27 | 42.16031 | 23.14190 | 20046 ft | 446 kts | 44° |
| 2026-04-27 20:28 | 42.18221 | 23.17130 | 18956 ft | 442 kts | 44° |
| 2026-04-27 20:28 | 42.20390 | 23.20044 | 17893 ft | 437 kts | 44° |
| 2026-04-27 20:28 | 42.22525 | 23.22917 | 16823 ft | 431 kts | 44° |
| 2026-04-27 20:28 | 42.23950 | 23.24837 | 16141 ft | 425 kts | 43° |
| 2026-04-27 20:29 | 42.26863 | 23.28222 | 14778 ft | 411 kts | 27° |
| 2026-04-27 20:29 | 42.29497 | 23.29511 | 13823 ft | 398 kts | 5° |
| 2026-04-27 20:29 | 42.32217 | 23.29379 | 13460 ft | 391 kts | 346° |
| 2026-04-27 20:29 | 42.34799 | 23.28253 | 13301 ft | 390 kts | 337° |
| 2026-04-27 20:30 | 42.37317 | 23.26892 | 13163 ft | 384 kts | 336° |
| 2026-04-27 20:30 | 42.39727 | 23.25522 | 13194 ft | 367 kts | 335° |
| 2026-04-27 20:30 | 42.42027 | 23.24186 | 13192 ft | 352 kts | 334° |
| 2026-04-27 20:30 | 42.44229 | 23.22887 | 13190 ft | 338 kts | 334° |
| 2026-04-27 20:31 | 42.46374 | 23.21609 | 13142 ft | 335 kts | 334° |
| 2026-04-27 20:31 | 42.48506 | 23.20331 | 13033 ft | 335 kts | 334° |
| 2026-04-27 20:31 | 42.50633 | 23.19051 | 13000 ft | 335 kts | 334° |
| 2026-04-27 20:31 | 42.52709 | 23.17720 | 12950 ft | 323 kts | 326° |
| 2026-04-27 20:32 | 42.54500 | 23.15965 | 12822 ft | 312 kts | 321° |
| 2026-04-27 20:32 | 42.56190 | 23.14258 | 12697 ft | 303 kts | 321° |
| 2026-04-27 20:32 | 42.57862 | 23.12577 | 12573 ft | 294 kts | 321° |
| 2026-04-27 20:32 | 42.59481 | 23.10946 | 12347 ft | 285 kts | 321° |
| 2026-04-27 20:33 | 42.61043 | 23.09369 | 12059 ft | 275 kts | 322° |
| 2026-04-27 20:33 | 42.62506 | 23.07713 | 11400 ft | 275 kts | 307° |
| 2026-04-27 20:33 | 42.63339 | 23.05383 | 10673 ft | 278 kts | 280° |
| 2026-04-27 20:33 | 42.63521 | 23.02752 | 9986 ft | 282 kts | 275° |
| 2026-04-27 20:34 | 42.63683 | 23.00083 | 9219 ft | 286 kts | 275° |
| 2026-04-27 20:34 | 42.63845 | 22.97366 | 8457 ft | 290 kts | 275° |
| 2026-04-27 20:34 | 42.64005 | 22.94616 | 7706 ft | 294 kts | 275° |
| 2026-04-27 20:34 | 42.64162 | 22.91868 | 7321 ft | 286 kts | 274° |
| 2026-04-27 20:35 | 42.64309 | 22.89258 | 7232 ft | 267 kts | 274° |
| 2026-04-27 20:35 | 42.64444 | 22.86833 | 7154 ft | 248 kts | 274° |
| 2026-04-27 20:35 | 42.64568 | 22.84579 | 7091 ft | 232 kts | 274° |
| 2026-04-27 20:35 | 42.64687 | 22.82416 | 7104 ft | 228 kts | 274° |
| 2026-04-27 20:36 | 42.65053 | 22.80327 | 6982 ft | 229 kts | 300° |
| 2026-04-27 20:36 | 42.66161 | 22.78825 | 6912 ft | 228 kts | 332° |
| 2026-04-27 20:36 | 42.67692 | 22.78270 | 6944 ft | 231 kts | 358° |
| 2026-04-27 20:36 | 42.69302 | 22.78354 | 6986 ft | 231 kts | 2° |
| 2026-04-27 20:37 | 42.70886 | 22.78679 | 6968 ft | 232 kts | 20° |
| 2026-04-27 20:37 | 42.72160 | 22.79934 | 6943 ft | 233 kts | 50° |
| 2026-04-27 20:37 | 42.72844 | 22.81917 | 6955 ft | 235 kts | 78° |
| 2026-04-27 20:37 | 42.72883 | 22.84151 | 6981 ft | 237 kts | 93° |
| 2026-04-27 20:38 | 42.72785 | 22.86389 | 6990 ft | 237 kts | 93° |
| 2026-04-27 20:38 | 42.72677 | 22.88618 | 6961 ft | 236 kts | 94° |
| 2026-04-27 20:38 | 42.72562 | 22.90850 | 6972 ft | 236 kts | 94° |
| 2026-04-27 20:38 | 42.72457 | 22.93085 | 6963 ft | 237 kts | 92° |
| 2026-04-27 20:39 | 42.72373 | 22.95320 | 6976 ft | 237 kts | 93° |
| 2026-04-27 20:39 | 42.72266 | 22.97549 | 6975 ft | 236 kts | 94° |
| 2026-04-27 20:39 | 42.72144 | 22.99773 | 6891 ft | 236 kts | 94° |
| 2026-04-27 20:39 | 42.72016 | 23.01993 | 6476 ft | 235 kts | 94° |
| 2026-04-27 20:40 | 42.71887 | 23.04183 | 6139 ft | 229 kts | 94° |
| 2026-04-27 20:40 | 42.71759 | 23.06347 | 6100 ft | 230 kts | 94° |
| 2026-04-27 20:40 | 42.71632 | 23.08490 | 6085 ft | 230 kts | 94° |
| 2026-04-27 20:40 | 42.71502 | 23.10663 | 5897 ft | 230 kts | 94° |
| 2026-04-27 20:41 | 42.71376 | 23.12764 | 5672 ft | 209 kts | 94° |
| 2026-04-27 20:41 | 42.71262 | 23.14654 | 5409 ft | 196 kts | 94° |
| 2026-04-27 20:41 | 42.71153 | 23.16495 | 5166 ft | 194 kts | 94° |
| 2026-04-27 20:41 | 42.71043 | 23.18314 | 4908 ft | 192 kts | 94° |
| 2026-04-27 20:42 | 42.70938 | 23.20052 | 4657 ft | 174 kts | 94° |
| 2026-04-27 20:42 | 42.70847 | 23.21608 | 4465 ft | 161 kts | 94° |
| 2026-04-27 20:42 | 42.70759 | 23.23076 | 4239 ft | 159 kts | 94° |
| 2026-04-27 20:42 | 42.70669 | 23.24574 | 4022 ft | 158 kts | 94° |
| 2026-04-27 20:43 | 42.70577 | 23.26056 | 3797 ft | 157 kts | 94° |
| 2026-04-27 20:43 | 42.70492 | 23.27513 | 3580 ft | 155 kts | 93° |
| 2026-04-27 20:43 | 42.70405 | 23.28970 | 3369 ft | 155 kts | 94° |
| 2026-04-27 20:43 | 42.70287 | 23.30420 | 3197 ft | 155 kts | 94° |
| 2026-04-27 20:44 | 42.70197 | 23.31872 | 2913 ft | 152 kts | 92° |
| 2026-04-27 20:44 | 42.70115 | 23.33287 | 2590 ft | 148 kts | 93° |
| 2026-04-27 20:44 | 42.70021 | 23.34680 | 2483 ft | 148 kts | 94° |
| 2026-04-27 20:44 | 42.69942 | 23.36078 | 2394 ft | 148 kts | 92° |
| 2026-04-27 20:45 | 42.69899 | 23.37481 | 2184 ft | 149 kts | 93° |
| 2026-04-27 20:45 | 42.69815 | 23.38880 | 1949 ft | 149 kts | 95° |
| 2026-04-27 20:45 | 42.69726 | 23.40280 | 1769 ft | 146 kts | 95° |
| 2026-04-27 20:45 | 42.69653 | 23.41431 | 1752 ft | 87 kts | 94° |
| 2026-04-27 20:46 | 42.69626 | 23.41949 | 1751 ft | 24 kts | 94° |
| 2026-04-27 20:46 | 42.69616 | 23.42135 | 1749 ft | 27 kts | 94° |
| 2026-04-27 20:46 | 42.69601 | 23.42415 | 1751 ft | 22 kts | 94° |
| 2026-04-27 20:46 | 42.69580 | 23.42591 | 1748 ft | 19 kts | 103° |
| 2026-04-27 20:47 | 42.69558 | 23.42638 | 1750 ft | 5 kts | 131° |
| 2026-04-27 20:47 | 42.69514 | 23.42704 | 1753 ft | 14 kts | 131° |
| 2026-04-27 20:47 | 42.69429 | 23.42747 | 1753 ft | 14 kts | 212° |
| 2026-04-27 20:47 | 42.69404 | 23.42668 | 1746 ft | 0 kts | 267° |
| 2026-04-27 20:48 | 42.69404 | 23.42649 | 1746 ft | 6 kts | 269° |
| 2026-04-27 20:48 | 42.69405 | 23.42591 | 1751 ft | 13 kts | 273° |
| 2026-04-27 20:48 | 42.69423 | 23.42332 | 1748 ft | 28 kts | 276° |
| 2026-04-27 20:48 | 42.69445 | 23.42049 | 1752 ft | 31 kts | 272° |
| 2026-04-27 20:49 | 42.69459 | 23.41755 | 1751 ft | 32 kts | 274° |
| 2026-04-27 20:49 | 42.69461 | 23.41562 | 1747 ft | 13 kts | 233° |
| 2026-04-27 20:49 | 42.69369 | 23.41522 | 1742 ft | 18 kts | 187° |
| 2026-04-27 20:49 | 42.69287 | 23.41402 | 1750 ft | 21 kts | 271° |
| 2026-04-27 20:50 | 42.69298 | 23.41242 | 1749 ft | 8 kts | 268° |
| 2026-04-27 20:50 | 42.69251 | 23.41162 | 1749 ft | 16 kts | 201° |
| 2026-04-27 20:50 | 42.69125 | 23.41087 | 1745 ft | 22 kts | 237° |
| 2026-04-27 20:50 | 42.69075 | 23.40881 | 1745 ft | 24 kts | 252° |
| 2026-04-27 20:51 | 42.69075 | 23.40666 | 1749 ft | 24 kts | 286° |
| 2026-04-27 20:51 | 42.69123 | 23.40450 | 1742 ft | 17 kts | 287° |
| 2026-04-27 20:51 | 42.69109 | 23.40387 | 1745 ft | 0 kts | 187° |
| 2026-04-27 20:51 | 42.69092 | 23.40384 | 1749 ft | 6 kts | 188° |
| 2026-04-27 20:52 | 42.69070 | 23.40377 | 1749 ft | 1 kts | 194° |
| 2026-04-27 20:52 | 42.69065 | 23.40375 | 1749 ft | 0 kts | 194° |